createdAt,value
2022-12-26T00:04:52.207Z,35.95
2022-12-26T00:09:55.977Z,36.33
2022-12-26T00:14:58.827Z,35.28
2022-12-26T00:20:03.096Z,36.63
2022-12-26T00:25:06.993Z,36.13
2022-12-26T00:30:10.980Z,35.67
2022-12-26T00:35:15.163Z,35.25
2022-12-26T00:40:18.740Z,35.58
2022-12-26T00:45:21.594Z,35.75
2022-12-26T00:50:32.653Z,35.70
2022-12-26T00:55:37.504Z,35.17
2022-12-26T01:00:40.485Z,35.80
2022-12-26T01:05:46.273Z,35.25
2022-12-26T01:10:51.998Z,35.35
2022-12-26T01:15:55.369Z,35.47
2022-12-26T01:21:04.134Z,35.25
2022-12-26T01:26:16.445Z,35.47
2022-12-26T01:31:24.121Z,35.35
2022-12-26T01:36:28.403Z,35.88
2022-12-26T01:41:33.171Z,35.28
2022-12-26T01:46:40.589Z,35.38
2022-12-26T01:51:48.393Z,35.55
2022-12-26T01:56:51.639Z,35.78
2022-12-26T02:01:56.226Z,35.08
2022-12-26T02:07:04.621Z,35.65
2022-12-26T02:12:34.205Z,35.30
2022-12-26T02:17:38.843Z,36.03
2022-12-26T02:23:12.991Z,37.00
2022-12-26T02:28:43.086Z,35.35
2022-12-26T02:34:00.057Z,35.60
2022-12-26T02:39:45.274Z,35.58
2022-12-26T02:45:04.007Z,35.55
2022-12-26T02:50:32.950Z,35.00
2022-12-26T02:55:56.940Z,35.28
2022-12-26T03:01:22.563Z,35.42
2022-12-26T03:06:48.055Z,35.78
2022-12-26T03:12:12.272Z,35.55
2022-12-26T03:17:29.605Z,35.10
2022-12-26T03:22:41.449Z,35.83
2022-12-26T03:27:44.353Z,35.38
2022-12-26T03:32:47.297Z,37.78
2022-12-26T03:37:56.551Z,35.17
2022-12-26T03:43:25.758Z,35.28
2022-12-26T03:48:51.581Z,35.53
2022-12-26T03:54:18.450Z,35.30
2022-12-26T03:59:45.735Z,35.70
2022-12-26T04:05:08.782Z,35.17
2022-12-26T04:10:35.617Z,35.22
2022-12-26T04:16:03.023Z,35.33
2022-12-26T04:21:34.287Z,35.40
2022-12-26T04:27:02.038Z,34.67
2022-12-26T04:32:26.405Z,35.10
2022-12-26T04:37:49.494Z,35.55
2022-12-26T04:43:46.618Z,35.80
2022-12-26T04:48:52.290Z,35.55
2022-12-26T04:53:55.190Z,35.63
2022-12-26T04:59:00.529Z,35.72
2022-12-26T05:04:20.920Z,35.78
2022-12-26T05:09:35.937Z,36.08
2022-12-26T05:14:40.190Z,35.80
2022-12-26T05:20:00.810Z,36.22
2022-12-26T05:25:23.717Z,35.42
2022-12-26T05:30:28.114Z,35.28
2022-12-26T05:35:31.107Z,35.47
2022-12-26T05:40:34.004Z,35.88
2022-12-26T05:45:38.246Z,35.17
2022-12-26T05:50:41.126Z,36.20
2022-12-26T05:55:44.984Z,35.35
2022-12-26T06:00:49.379Z,35.25
2022-12-26T06:05:52.278Z,35.33
2022-12-26T06:10:55.257Z,35.60
2022-12-26T06:15:59.624Z,35.72
2022-12-26T06:21:05.747Z,35.50
2022-12-26T06:26:10.377Z,35.60
2022-12-26T06:31:16.304Z,35.50
2022-12-26T06:36:20.812Z,35.50
2022-12-26T06:41:29.990Z,35.42
2022-12-26T06:46:34.236Z,35.97
2022-12-26T06:51:37.132Z,35.70
2022-12-26T06:56:40.142Z,35.13
2022-12-26T07:01:44.556Z,35.67
2022-12-26T07:06:47.603Z,36.60
2022-12-26T07:11:52.381Z,36.42
2022-12-26T07:16:56.643Z,35.55
2022-12-26T07:21:59.547Z,36.17
2022-12-26T07:27:02.458Z,36.30
2022-12-26T07:32:07.149Z,36.75
2022-12-26T07:37:10.363Z,36.60
2022-12-26T07:42:13.276Z,36.03
2022-12-26T07:47:17.503Z,35.70
2022-12-26T07:52:21.410Z,38.00
2022-12-26T08:03:04.677Z,36.70
2022-12-26T08:08:09.951Z,36.25
2022-12-26T08:13:12.876Z,36.17
2022-12-26T08:18:17.107Z,37.17
2022-12-26T08:23:20.059Z,36.30
2022-12-26T08:28:22.995Z,35.90
2022-12-26T08:33:27.811Z,36.28
2022-12-26T08:38:31.816Z,36.00
2022-12-26T08:49:01.272Z,35.67
2022-12-26T08:54:04.367Z,35.63
2022-12-26T08:59:07.361Z,42.03
2022-12-26T09:04:11.825Z,40.10
2022-12-26T09:09:14.809Z,40.75
2022-12-26T09:14:17.819Z,38.25
2022-12-26T09:19:23.196Z,37.47
2022-12-26T09:24:26.122Z,36.65
2022-12-26T09:29:29.022Z,39.05
2022-12-26T09:34:33.309Z,37.42
2022-12-26T09:39:36.218Z,36.83
2022-12-26T09:44:49.340Z,37.13
2022-12-26T09:49:58.350Z,37.05
2022-12-26T09:55:06.584Z,36.17
2022-12-26T10:00:19.507Z,35.80
2022-12-26T10:05:37.205Z,36.00
2022-12-26T10:10:47.265Z,36.03
2022-12-26T10:15:54.531Z,34.95
2022-12-26T10:21:24.080Z,35.63
2022-12-26T10:26:32.578Z,35.17
2022-12-26T10:31:41.185Z,35.70
2022-12-26T10:36:49.528Z,36.40
2022-12-26T10:41:54.470Z,34.78
2022-12-26T10:47:19.804Z,34.90
2022-12-26T10:52:30.113Z,38.03
2022-12-26T10:57:37.391Z,42.35
2022-12-26T11:02:40.582Z,40.78
2022-12-26T11:07:50.503Z,35.80
2022-12-26T11:12:55.236Z,35.45
2022-12-26T11:18:10.297Z,34.15
2022-12-26T11:23:26.021Z,38.28
2022-12-26T11:28:34.750Z,36.60
2022-12-26T11:33:43.685Z,35.63
2022-12-26T11:38:52.317Z,35.22
2022-12-26T11:43:56.385Z,34.45
2022-12-26T11:48:59.617Z,34.13
2022-12-26T11:54:27.257Z,35.63
2022-12-26T11:59:30.435Z,34.50
2022-12-26T12:04:33.379Z,34.10
2022-12-26T12:09:44.981Z,34.08
2022-12-26T12:15:00.013Z,34.08
2022-12-26T12:20:20.534Z,34.35
2022-12-26T12:25:33.417Z,34.95
2022-12-26T12:30:50.496Z,36.97
2022-12-26T12:36:03.201Z,35.38
2022-12-26T12:41:34.718Z,34.25
2022-12-26T12:47:01.576Z,35.03
2022-12-26T12:52:18.951Z,34.65
2022-12-26T12:57:29.690Z,35.55
2022-12-26T13:02:39.213Z,34.83
2022-12-26T13:07:47.552Z,33.97
2022-12-26T13:12:54.395Z,34.95
2022-12-26T13:18:03.346Z,34.30
2022-12-26T13:23:34.609Z,34.47
2022-12-26T13:28:45.865Z,34.38
2022-12-26T13:33:48.974Z,35.13
2022-12-26T13:39:29.645Z,34.72
2022-12-26T13:44:37.638Z,33.55
2022-12-26T13:49:42.558Z,34.08
2022-12-26T13:55:28.888Z,33.97
2022-12-26T14:00:46.023Z,34.40
2022-12-26T14:06:12.408Z,34.40
2022-12-26T14:11:34.174Z,34.00
2022-12-26T14:16:46.712Z,33.92
2022-12-26T14:21:58.820Z,35.15
2022-12-26T14:27:25.862Z,34.13
2022-12-26T14:32:40.618Z,34.60
2022-12-26T14:37:52.538Z,33.88
2022-12-26T14:43:27.358Z,34.30
2022-12-26T14:48:58.418Z,34.28
2022-12-26T14:54:39.600Z,34.28
2022-12-26T15:00:03.832Z,35.55
2022-12-26T15:05:14.939Z,37.97
2022-12-26T15:10:52.604Z,39.53
2022-12-26T15:16:13.201Z,38.83
2022-12-26T15:21:32.456Z,43.67
2022-12-26T15:27:18.530Z,36.67
2022-12-26T15:32:29.721Z,35.63
2022-12-26T15:37:46.441Z,37.00
2022-12-26T15:43:01.829Z,36.58
2022-12-26T15:48:12.265Z,35.00
2022-12-26T15:53:26.363Z,35.28
2022-12-26T15:58:47.445Z,34.95
2022-12-26T16:03:54.722Z,35.97
2022-12-26T16:09:16.211Z,35.10
2022-12-26T16:14:29.248Z,35.08
2022-12-26T16:19:32.192Z,35.38
2022-12-26T16:24:38.888Z,34.50
2022-12-26T16:29:47.415Z,34.25
2022-12-26T16:34:50.834Z,34.28
2022-12-26T16:40:18.778Z,34.53
2022-12-26T16:45:23.147Z,34.15
2022-12-26T16:50:33.031Z,34.53
2022-12-26T16:55:43.588Z,34.03
2022-12-26T17:01:04.034Z,34.33
2022-12-26T17:06:09.989Z,35.65
2022-12-26T17:11:14.776Z,35.83
2022-12-26T17:16:17.746Z,34.75
2022-12-26T17:21:30.131Z,34.50
2022-12-26T17:26:35.353Z,35.00
2022-12-26T17:31:45.590Z,35.90
2022-12-26T17:42:14.604Z,34.50
2022-12-26T17:47:21.982Z,34.28
2022-12-26T17:52:30.145Z,34.15
2022-12-26T17:57:34.490Z,34.05
2022-12-26T18:02:38.565Z,34.15
2022-12-26T18:07:41.861Z,33.92
2022-12-26T18:12:47.211Z,36.40
2022-12-26T18:17:51.924Z,33.85
2022-12-26T18:22:56.636Z,34.17
2022-12-26T18:28:01.076Z,34.45
2022-12-26T18:33:04.000Z,33.63
2022-12-26T18:38:06.925Z,33.97
2022-12-26T18:43:11.453Z,34.72
2022-12-26T18:48:20.120Z,34.28
2022-12-26T18:53:26.127Z,34.35
2022-12-26T18:58:30.407Z,34.15
2022-12-26T19:03:35.408Z,33.75
2022-12-26T19:08:38.328Z,34.35
2022-12-26T19:13:42.907Z,34.05
2022-12-26T19:18:46.835Z,34.20
2022-12-26T19:23:49.791Z,34.70
2022-12-26T19:28:55.791Z,34.25
2022-12-26T19:33:59.454Z,33.75
2022-12-26T19:39:02.387Z,34.20
2022-12-26T19:44:06.781Z,33.63
2022-12-26T19:49:09.741Z,33.92
2022-12-26T19:54:12.667Z,34.95
2022-12-26T19:59:16.931Z,33.65
2022-12-26T20:04:19.960Z,34.30
2022-12-26T20:09:23.044Z,33.85
2022-12-26T20:14:28.509Z,34.15
2022-12-26T20:19:33.492Z,34.15
2022-12-26T20:24:36.518Z,34.08
2022-12-26T20:29:40.976Z,32.95
2022-12-26T20:34:43.904Z,33.47
2022-12-26T20:39:51.226Z,34.95
2022-12-26T20:44:55.533Z,34.47
2022-12-26T20:49:58.444Z,34.65
2022-12-26T20:55:01.445Z,34.05
2022-12-26T21:00:07.167Z,33.88
2022-12-26T21:05:11.153Z,34.05
2022-12-26T21:10:15.216Z,33.88
2022-12-26T21:15:19.722Z,34.28
2022-12-26T21:20:23.042Z,34.47
2022-12-26T21:25:26.096Z,33.55
2022-12-26T21:30:31.486Z,37.15
2022-12-26T21:35:37.749Z,34.50
2022-12-26T21:40:44.332Z,34.72
2022-12-26T21:45:48.908Z,34.63
2022-12-26T21:50:51.807Z,34.42
2022-12-26T21:55:54.728Z,34.55
2022-12-26T22:00:58.978Z,34.90
2022-12-26T22:06:02.967Z,34.05
2022-12-26T22:11:23.933Z,34.60
2022-12-26T22:16:29.858Z,33.90
2022-12-26T22:21:32.832Z,34.15
2022-12-26T22:26:35.819Z,34.05
2022-12-26T22:31:40.358Z,35.22
2022-12-26T22:36:43.826Z,34.97
2022-12-26T22:41:47.170Z,34.20
2022-12-26T22:46:51.547Z,34.90
2022-12-26T22:51:54.911Z,34.35
2022-12-26T22:56:57.782Z,34.40
2022-12-26T23:02:02.247Z,34.35
2022-12-26T23:07:05.844Z,33.85
2022-12-26T23:12:28.901Z,33.80
2022-12-26T23:17:54.506Z,34.88
2022-12-26T23:22:58.199Z,34.08
2022-12-26T23:28:18.650Z,35.10
2022-12-26T23:33:22.873Z,34.17
2022-12-26T23:38:25.884Z,33.97
2022-12-26T23:43:28.767Z,34.20
2022-12-26T23:48:34.859Z,34.30
2022-12-26T23:53:38.903Z,33.72
2022-12-26T23:58:42.314Z,34.28
